Flight Track Log - Related Links

Times and Time Zones

All times are in EDT time to prevent confusion due to time zone crossing. See the AAL963 flight status page for this flight to view local times or setup timezone preferences in your user account.

Time Position Orientation Groundspeed Altitude Reporting Facility
EDT Latitude Longitude Course Direction KTS MPH feet Rate Location/Type
Sun 10:42:36 PM 32.8612 -97.0285 171° South 184 212 2,000  Level FlightAware ADS-B
Sun 10:43:39 PM 32.7982 -97.0100 165° South 245 282 2,900 1,000 Climbing FlightAware ADS-B
Sun 10:44:00 PM 32.7753 -97.0020 162° South 257 296 3,400 1,463 Climbing FlightAware ADS-B
Sun 10:44:20 PM 32.7524 -96.9928 161° South 264 304 3,900 1,800 Climbing FlightAware ADS-B
Sun 10:44:40 PM 32.7294 -96.9836 161° South 270 311 4,600 2,333 Climbing FlightAware ADS-B
Sun 10:44:56 PM 32.7096 -96.9759 162° South 272 313 5,300 2,000 Climbing FlightAware ADS-B
Sun 10:45:19 PM 32.6962 -96.9710 163° South 276 318 5,900 1,674 Climbing FlightAware ADS-B
Sun 10:45:39 PM 32.6571 -96.9563 162° South 281 323 6,500 1,756 Climbing FlightAware ADS-B
Sun 10:46:00 PM 32.6314 -96.9462 162° South 285 328 7,100 1,846 Climbing FlightAware ADS-B
Sun 10:46:18 PM 32.6138 -96.9395 162° South 291 335 7,700 1,800 Climbing FlightAware ADS-B
Sun 10:46:40 PM 32.5803 -96.9270 162° South 292 336 8,300 1,756 Climbing FlightAware ADS-B
Sun 10:46:59 PM 32.5670 -96.9219 162° South 296 341 8,900 2,000 Climbing FlightAware ADS-B
Sun 10:47:19 PM 32.5325 -96.9089 162° South 298 343 9,600 1,600 Climbing FlightAware ADS-B
Sun 10:47:59 PM 32.4751 -96.8872 162° South 316 364 10,500 1,037 Climbing FlightAware ADS-B
Sun 10:48:40 PM 32.4150 -96.8646 162° South 349 402 11,000 759 Climbing FlightAware ADS-B
Sun 10:49:18 PM 32.3539 -96.8416 162° South 377 434 11,500 1,215 Climbing FlightAware ADS-B
Sun 10:49:59 PM 32.2843 -96.8154 162° South 387 445 12,600 2,122 Climbing FlightAware ADS-B
Sun 10:50:40 PM 32.2174 -96.7900 162° South 376 433 14,400 2,229 Climbing FlightAware ADS-B
Sun 10:51:09 PM 32.1687 -96.7713 161° South 378 435 15,200 2,118 Climbing FlightAware ADS-B
Sun 10:51:14 PM 32.1598 -96.7680 162° South 380 437 15,600 1,895 Climbing FlightAware ADS-B
Sun 10:51:28 PM 32.1357 -96.7587 162° South 379 436 15,800 1,200 Climbing FlightAware ADS-B
Sun 10:51:59 PM 32.0826 -96.7385 162° South 391 450 16,500 1,268 Climbing FlightAware ADS-B
Sun 10:52:39 PM 32.0235 -96.7160 162° South 398 458 17,300 1,271 Climbing FlightAware ADS-B
Sun 10:53:24 PM 31.9403 -96.6845 162° South 415 478 18,300 1,448 Climbing FlightAware ADS-B
Sun 10:53:37 PM 31.9181 -96.6761 162° South 417 480 18,700 1,067 Climbing FlightAware ADS-B
Sun 10:54:09 PM 31.8477 -96.6489 160° South 434 499 19,100 1,068 Climbing FlightAware ADS-B
Sun 10:54:50 PM 31.7698 -96.6165 160° South 437 503 20,000 1,280 Climbing FlightAware ADS-B
Sun 10:55:24 PM 31.7411 -96.6045 160° South 453 521 20,700 1,216 Climbing FlightAware ADS-B
Sun 10:56:04 PM 31.6219 -96.5558 160° South 462 532 21,500 1,099 Climbing FlightAware ADS-B
Sun 10:56:35 PM 31.5694 -96.5345 160° South 469 540 22,000 1,200 Climbing FlightAware ADS-B
Sun 10:57:04 PM 31.4999 -96.5063 161° South 473 544 22,700 1,525 Climbing FlightAware ADS-B
Sun 10:57:34 PM 31.4363 -96.4827 162° South 471 542 23,500 1,300 Climbing FlightAware ADS-B
Sun 10:58:04 PM 31.3738 -96.4597 162° South 475 547 24,000 1,082 Climbing FlightAware ADS-B
Sun 10:58:35 PM 31.3092 -96.4358 162° South 479 551 24,600 1,100 Climbing FlightAware ADS-B
Sun 10:59:04 PM 31.2460 -96.4122 162° South 484 557 25,100 1,119 Climbing FlightAware ADS-B
Sun 10:59:34 PM 31.1839 -96.3822 148° Southeast 488 562 25,700 1,080 Climbing FlightAware ADS-B
Sun 10:59:54 PM 31.1481 -96.3496 135° Southeast 491 565 26,000 840 Climbing FlightAware ADS-B
Sun 11:00:24 PM 31.1066 -96.2875 125° Southeast 494 568 26,400 900 Climbing FlightAware ADS-B
Sun 11:00:54 PM 31.0667 -96.2225 125° Southeast 497 572 26,900 885 Climbing FlightAware ADS-B
Sun 11:01:25 PM 31.0260 -96.1559 125° Southeast 500 575 27,300 800 Climbing FlightAware ADS-B
Sun 11:01:54 PM 30.9855 -96.0898 125° Southeast 503 579 27,700 814 Climbing FlightAware ADS-B
Sun 11:02:24 PM 30.9447 -96.0237 125° Southeast 507 583 28,100 800 Climbing FlightAware ADS-B
Sun 11:02:54 PM 30.9041 -95.9581 125° Southeast 509 586 28,500 800 Climbing FlightAware ADS-B
Sun 11:03:24 PM 30.8624 -95.8908 125° Southeast 511 588 28,900 885 Climbing FlightAware ADS-B
Sun 11:03:55 PM 30.8197 -95.8243 128° Southeast 514 592 29,400 900 Climbing FlightAware ADS-B
Sun 11:04:24 PM 30.7723 -95.7623 133° Southeast 515 593 29,800 712 Climbing FlightAware ADS-B
Sun 11:04:54 PM 30.7209 -95.7041 136° Southeast 519 597 30,100 700 Climbing FlightAware ADS-B
Sun 11:05:24 PM 30.6690 -95.6465 136° Southeast 520 598 30,500 689 Climbing FlightAware ADS-B
Sun 11:05:55 PM 30.6159 -95.5878 136° Southeast 524 603 30,800 600 Climbing FlightAware ADS-B
Sun 11:06:24 PM 30.5688 -95.5357 136° Southeast 525 604 31,100 915 Climbing FlightAware ADS-B
Sun 11:06:54 PM 30.5110 -95.4717 136° Southeast 521 600 31,700 1,100 Climbing FlightAware ADS-B
Sun 11:07:24 PM 30.4586 -95.4138 136° Southeast 518 596 32,200 900 Climbing FlightAware ADS-B
Sun 11:07:54 PM 30.4097 -95.3597 136° Southeast 517 595 32,600 700 Climbing FlightAware ADS-B
Sun 11:08:24 PM 30.3587 -95.3035 136° Southeast 519 597 32,900 338 Climbing FlightAware ADS-B
Sun 11:09:05 PM 30.2850 -95.2223 136° Southeast 519 597 33,000 86 Climbing FlightAware ADS-B
Sun 11:09:34 PM 30.2332 -95.1654 136° Southeast 517 595 33,000  Level FlightAware ADS-B
Sun 11:10:04 PM 30.1807 -95.1077 136° Southeast 517 595 33,000  Level FlightAware ADS-B
Sun 11:10:34 PM 30.1288 -95.0509 136° Southeast 516 594 33,000  Level FlightAware ADS-B
Sun 11:11:04 PM 30.0773 -94.9946 136° Southeast 514 592 33,000  Level FlightAware ADS-B
Sun 11:11:35 PM 30.0256 -94.9381 136° Southeast 514 592 33,000  Level FlightAware ADS-B
Sun 11:12:04 PM 29.9742 -94.8821 136° Southeast 513 590 33,000  Level FlightAware ADS-B
Sun 11:12:34 PM 29.9219 -94.8253 136° Southeast 512 589 33,000  Level FlightAware ADS-B
Sun 11:13:04 PM 29.8714 -94.7702 136° Southeast 512 589 33,000  Level FlightAware ADS-B
Sun 11:13:34 PM 29.8196 -94.7141 136° Southeast 512 589 33,000  Level FlightAware ADS-B
Sun 11:14:04 PM 29.7671 -94.6572 136° Southeast 511 588 33,000  Level FlightAware ADS-B
Sun 11:14:34 PM 29.7161 -94.6020 136° Southeast 510 587 33,000  Level FlightAware ADS-B
Sun 11:14:46 PM 29.6969 -94.5811 136° Southeast 511 588 33,000  Level FlightAware ADS-B
Sun 11:15:34 PM 29.6119 -94.4895 136° Southeast 510 587 33,000  Level FlightAware ADS-B
Sun 11:15:56 PM 29.5862 -94.4619 136° Southeast 510 587 33,000  Level FlightAware ADS-B
Sun 11:16:34 PM 29.5113 -94.3812 136° Southeast 510 587 33,000  Level FlightAware ADS-B
Sun 11:17:04 PM 29.4568 -94.3227 136° Southeast 510 587 33,000  Level FlightAware ADS-B
Sun 11:17:34 PM 29.4078 -94.2701 136° Southeast 511 588 33,000  Level FlightAware ADS-B
Sun 11:18:02 PM 29.3596 -94.2184 136° Southeast 512 589 33,000  Level FlightAware ADS-B
Sun 11:18:44 PM 29.2845 -94.1381 136° Southeast 512 589 33,000  Level FlightAware ADS-B
Sun 11:19:29 PM 29.2057 -94.0541 136° Southeast 510 587 33,000  Level FlightAware ADS-B
Sun 11:20:14 PM 29.1337 -93.9775 136° Southeast 507 583 33,000  Level FlightAware ADS-B
Sun 11:20:30 PM 29.1092 -93.9515 136° Southeast 507 583 33,000  Level FlightAware ADS-B
Sun 11:21:24 PM 29.0192 -93.8603 136° Southeast 511 588 33,000  Level Houston Center
Sun 11:22:25 PM 28.9181 -93.7450 135° Southeast 511 588 33,000  Level Houston Center
Sun 11:23:25 PM 28.8147 -93.6394 138° Southeast 503 579 33,000  Level Houston Center
Sun 11:24:26 PM 28.7106 -93.5300 137° Southeast 505 581 33,000 -49 Level Houston Center
Sun 11:25:27 PM 28.6056 -93.4194 137° Southeast 511 588 32,900  Descending Houston Center
Sun 11:26:28 PM 28.5000 -93.3089 137° Southeast 511 588 33,000  Climbing Houston Center
Sun 11:27:28 PM 28.3972 -93.2022 138° Southeast 510 587 32,900 -50 Descending Houston Center
Sun 11:28:29 PM 28.2922 -93.0931 138° Southeast 510 587 32,900 49 Level Houston Center
Sun 11:29:30 PM 28.1889 -92.9858 138° Southeast 509 586 33,000 49 Climbing Houston Center
Sun 11:30:31 PM 28.0656 -92.8556 137° Southeast 507 583 33,000  Level Houston Center
Sun 11:36:02 PM 27.4913 -92.2692 137° Southeast 500 575 33,000  Level FlightAware ADS-B
Sun 11:36:35 PM 27.4456 -92.2250 137° Southeast 500 575 33,000  Level Houston Center
Sun 11:37:36 PM 27.3433 -92.1194 137° Southeast 500 575 33,000  Level Houston Center
Sun 11:38:37 PM 27.2389 -92.0153 138° Southeast 500 575 33,000 -50 Level Houston Center
Sun 11:39:37 PM 27.1319 -91.9153 140° Southeast 500 575 32,900  Descending Houston Center
Mon 12:12:35 AM 23.4648 -88.9955 139° Southeast 486 559 33,000 Climbing FlightAware ADS-B (MMUN / CUN)
Mon 12:13:05 AM 23.4135 -88.9484 139° Southeast 486 559 33,000  Level FlightAware ADS-B (MMUN / CUN)
Mon 12:13:33 AM 23.3647 -88.9037 139° Southeast 486 559 33,000  Level FlightAware ADS-B (MMUN / CUN)
Mon 12:14:04 AM 23.3117 -88.8550 139° Southeast 484 557 33,000  Level FlightAware ADS-B (MMUN / CUN)
Mon 12:14:33 AM 23.2619 -88.8095 139° Southeast 483 556 33,000  Level FlightAware ADS-B (MMUN / CUN)
Mon 12:15:02 AM 23.2144 -88.7658 139° Southeast 482 555 33,000  Level FlightAware ADS-B (MMUN / CUN)
Mon 12:15:33 AM 23.1625 -88.7183 139° Southeast 481 554 33,000  Level FlightAware ADS-B (MMUN / CUN)
Mon 12:15:43 AM 23.1431 -88.7005 139° Southeast 481 554 33,000  Level FlightAware ADS-B (MMUN / CUN)
Mon 12:16:33 AM 23.0565 -88.6204 139° Southeast 481 554 33,000  Level FlightAware ADS-B (MMUN / CUN)
Mon 12:16:49 AM 23.0306 -88.5963 139° Southeast 482 555 33,000  Level FlightAware ADS-B (MMUN / CUN)
Mon 12:17:36 AM 22.9520 -88.5235 139° Southeast 482 555 33,000  Level FlightAware ADS-B (MMUN / CUN)
Mon 12:17:55 AM 22.9286 -88.5019 139° Southeast 482 555 33,000  Level FlightAware ADS-B (MMUN / CUN)
Mon 12:18:35 AM 22.8502 -88.4296 139° Southeast 481 554 33,000  Level FlightAware ADS-B (MMUN / CUN)
Mon 12:19:04 AM 22.8014 -88.3847 139° Southeast 482 555 33,000  Level FlightAware ADS-B (MMUN / CUN)
Mon 12:19:34 AM 22.7495 -88.3369 139° Southeast 482 555 33,000  Level FlightAware ADS-B (MMUN / CUN)
Mon 12:20:04 AM 22.6978 -88.2894 139° Southeast 482 555 33,000  Level FlightAware ADS-B (MMUN / CUN)
Mon 12:20:34 AM 22.6470 -88.2428 139° Southeast 482 555 33,000  Level FlightAware ADS-B (MMUN / CUN)
Mon 12:21:04 AM 22.5966 -88.1965 139° Southeast 481 554 33,000  Level FlightAware ADS-B (MMUN / CUN)
Mon 12:21:35 AM 22.5453 -88.1495 139° Southeast 480 552 33,000  Level FlightAware ADS-B (MMUN / CUN)
Mon 12:22:02 AM 22.4971 -88.1053 139° Southeast 480 552 33,000  Level FlightAware ADS-B (MMUN / CUN)
Mon 12:22:35 AM 22.4433 -88.0560 139° Southeast 480 552 33,000 182 Level FlightAware ADS-B (MMUN / CUN)
Mon 12:23:08 AM 22.3862 -88.0039 139° Southeast 480 552 33,200 646 Climbing FlightAware ADS-B (MMUN / CUN)
Mon 12:23:40 AM 22.3316 -87.9541 139° Southeast 478 550 33,700 885 Climbing FlightAware ADS-B (MMUN / CUN)
Mon 12:24:09 AM 22.2844 -87.9110 139° Southeast 476 548 34,100 800 Climbing FlightAware ADS-B (MMUN / CUN)
Mon 12:24:40 AM 22.2318 -87.8631 139° Southeast 477 549 34,500 590 Climbing FlightAware ADS-B (MMUN / CUN)
Mon 12:25:10 AM 22.1801 -87.8161 139° Southeast 479 551 34,700 500 Climbing FlightAware ADS-B (MMUN / CUN)
Mon 12:25:40 AM 22.1293 -87.7699 139° Southeast 479 551 35,000 300 Climbing FlightAware ADS-B (MMUN / CUN)
Mon 12:26:10 AM 22.0777 -87.7230 139° Southeast 476 548 35,000  Level FlightAware ADS-B (MMUN / CUN)
Mon 12:26:38 AM 22.0301 -87.6797 139° Southeast 476 548 35,000  Level FlightAware ADS-B (MMUN / CUN)
Mon 12:27:09 AM 21.9779 -87.6324 139° Southeast 476 548 35,000  Level FlightAware ADS-B (MMUN / CUN)
Mon 12:27:40 AM 21.9262 -87.5857 139° Southeast 476 548 35,000  Level FlightAware ADS-B (MMUN / CUN)
Mon 12:28:07 AM 21.8806 -87.5444 139° Southeast 476 548 35,000  Level FlightAware ADS-B (MMUN / CUN)
Mon 12:28:36 AM 21.8322 -87.5006 139° Southeast 476 548 35,000  Level FlightAware ADS-B (MMUN / CUN)
Mon 12:29:09 AM 21.7760 -87.4499 139° Southeast 476 548 35,000  Level FlightAware ADS-B (MMUN / CUN)
Mon 12:29:37 AM 21.7282 -87.4067 139° Southeast 476 548 35,000  Level FlightAware ADS-B (MMUN / CUN)
Mon 12:30:07 AM 21.6778 -87.3614 139° Southeast 476 548 35,000  Level FlightAware ADS-B (MMUN / CUN)
Mon 12:30:38 AM 21.6255 -87.3142 139° Southeast 476 548 35,000  Level FlightAware ADS-B (MMUN / CUN)
Mon 12:31:10 AM 21.5713 -87.2654 140° Southeast 477 549 35,000  Level FlightAware ADS-B (MMUN / CUN)
Mon 12:31:38 AM 21.5240 -87.2230 139° Southeast 478 550 35,000  Level FlightAware ADS-B (MMUN / CUN)
Mon 12:32:08 AM 21.4725 -87.1766 140° Southeast 477 549 35,000  Level FlightAware ADS-B (MMUN / CUN)
Mon 12:32:36 AM 21.4254 -87.1345 140° Southeast 477 549 35,000  Level FlightAware ADS-B (MMUN / CUN)
Mon 12:33:08 AM 21.3718 -87.0864 139° Southeast 478 550 35,000  Level FlightAware ADS-B (MMUN / CUN)
Mon 12:33:38 AM 21.3193 -87.0393 140° Southeast 478 550 35,000  Level FlightAware ADS-B (MMUN / CUN)
Mon 12:34:10 AM 21.2662 -86.9918 139° Southeast 479 551 35,000  Level FlightAware ADS-B (MMUN / CUN)
Mon 12:34:38 AM 21.2187 -86.9494 140° Southeast 477 549 35,000  Level FlightAware ADS-B (MMUN / CUN)
Mon 12:35:10 AM 21.1647 -86.9013 140° Southeast 475 547 35,000  Level FlightAware ADS-B (MMUN / CUN)
Mon 12:35:38 AM 21.1172 -86.8588 139° Southeast 474 545 35,000  Level FlightAware ADS-B (MMUN / CUN)
Mon 12:36:10 AM 21.0654 -86.8077 131° Southeast 472 543 35,000  Level FlightAware ADS-B (MMUN / CUN)
Mon 12:36:40 AM 21.0231 -86.7544 129° Southeast 472 543 35,000  Level FlightAware ADS-B (MMUN / CUN)
Mon 12:37:07 AM 20.9852 -86.7062 130° Southeast 473 544 35,000  Level FlightAware ADS-B (MMUN / CUN)
Mon 12:37:40 AM 20.9378 -86.6462 129° Southeast 474 545 35,000  Level FlightAware ADS-B (MMUN / CUN)
Mon 12:38:10 AM 20.8958 -86.5925 129° Southeast 474 545 35,000  Level FlightAware ADS-B (MMUN / CUN)
Mon 12:38:38 AM 20.8570 -86.5430 129° Southeast 475 547 35,000  Level FlightAware ADS-B (MMUN / CUN)
Mon 12:39:09 AM 20.8133 -86.4874 129° Southeast 475 547 35,000  Level FlightAware ADS-B (MMUN / CUN)
Mon 12:39:36 AM 20.7750 -86.4384 129° Southeast 475 547 35,000  Level FlightAware ADS-B (MMUN / CUN)
Mon 12:40:05 AM 20.7338 -86.3857 129° Southeast 475 547 35,000  Level FlightAware ADS-B (MMUN / CUN)
Mon 12:40:48 AM 20.6759 -86.3041 126° Southeast 478 550 35,000  Level FlightAware ADS-B (MMUN / CUN)
Mon 12:41:14 AM 20.6433 -86.2575 126° Southeast 479 551 35,000  Level FlightAware ADS-B (MMUN / CUN)
Mon 12:41:47 AM 20.5978 -86.1919 126° Southeast 479 551 35,000  Level FlightAware ADS-B (MMUN / CUN)
Mon 12:42:18 AM 20.5573 -86.1339 126° Southeast 479 551 35,000  Level FlightAware ADS-B (MMUN / CUN)
Mon 12:42:46 AM 20.5189 -86.0811 133° Southeast 479 551 35,000  Level FlightAware ADS-B (MMUN / CUN)
Mon 12:43:24 AM 20.4618 -86.0171 126° Southeast 477 549 35,000  Level FlightAware ADS-B (MMUN / CUN)
Mon 12:44:05 AM 20.4113 -85.9372 123° Southeast 477 549 35,000  Level FlightAware ADS-B (MMUN / CUN)
Mon 12:44:31 AM 20.3970 -85.9143 123° Southeast 476 548 35,000  Level FlightAware ADS-B (MMUN / CUN)
Mon 12:44:58 AM 20.3470 -85.8346 123° Southeast 476 548 35,000  Level FlightAware ADS-B (MMUN / CUN)
Mon 12:45:36 AM 20.3065 -85.7699 123° Southeast 476 548 35,000  Level FlightAware ADS-B (MMUN / CUN)
Mon 12:46:34 AM 20.2284 -85.6443 123° Southeast 476 548 35,000  Level FlightAware ADS-B (MMUN / CUN)
Mon 12:47:03 AM 20.2046 -85.6057 123° Southeast 477 549 35,000  Level FlightAware ADS-B (MMUN / CUN)
Mon 12:47:33 AM 20.1578 -85.5299 123° Southeast 477 549 35,000  Level FlightAware ADS-B (MMUN / CUN)
Mon 12:48:04 AM 20.1214 -85.4711 123° Southeast 476 548 35,000  Level FlightAware ADS-B (MMUN / CUN)
Mon 12:48:35 AM 20.0832 -85.4097 123° Southeast 476 548 35,000  Level FlightAware ADS-B (MMUN / CUN)
Mon 12:48:55 AM 20.0684 -85.3861 123° Southeast 475 547 35,000  Level FlightAware ADS-B (MMUN / CUN)
Mon 12:50:08 AM 19.9737 -85.2320 123° Southeast 475 547 35,000  Level FlightAware ADS-B (MMUN / CUN)
Mon 12:50:40 AM 19.9340 -85.1665 122° Southeast 473 544 35,000  Level FlightAware ADS-B (MMUN / CUN)
Mon 12:50:47 AM 19.9257 -85.1529 122° Southeast 473 544 35,000  Level FlightAware ADS-B (MMUN / CUN)
Mon 12:52:09 AM 19.8180 -84.9972 130° Southeast 474 545 35,000  Level FlightAware ADS-B (MMUN / CUN)
Mon 12:52:17 AM 19.8125 -84.9903 130° Southeast 474 545 35,000  Level FlightAware ADS-B (MMUN / CUN)
Mon 12:53:34 AM 19.6964 -84.8552 132° Southeast 474 545 35,000 18 Level FlightAware ADS-B (MMUN / CUN)
Mon 12:56:00 AM 19.4612 -84.6249 137° Southeast  Level Estimated
Mon 12:57:00 AM 19.3645 -84.5304 137° Southeast  Level Estimated
Mon 12:58:00 AM 19.2676 -84.4361 137° Southeast  Level Estimated
Mon 12:59:00 AM 19.1708 -84.3419 137° Southeast  Level Estimated
Mon 01:00:00 AM 19.0739 -84.2477 137° Southeast  Level Estimated
Mon 01:01:00 AM 18.9769 -84.1537 137° Southeast  Level Estimated
Mon 01:02:00 AM 18.8799 -84.0598 138° Southeast  Level Estimated
Mon 01:03:00 AM 18.7829 -83.9660 138° Southeast  Level Estimated
Mon 01:04:00 AM 18.6858 -83.8724 138° Southeast  Level Estimated
Mon 01:05:00 AM 18.5887 -83.7788 138° Southeast  Level Estimated
Mon 01:06:00 AM 18.4915 -83.6853 138° Southeast  Level Estimated
Mon 01:07:00 AM 18.3943 -83.5919 138° Southeast  Level Estimated
Mon 01:08:00 AM 18.2970 -83.4987 138° Southeast  Level Estimated
Mon 01:09:00 AM 18.1997 -83.4055 138° Southeast  Level Estimated
Mon 01:10:00 AM 18.1023 -83.3125 138° Southeast  Level Estimated
Mon 01:11:00 AM 18.0049 -83.2195 138° Southeast  Level Estimated
Mon 01:12:00 AM 17.9074 -83.1267 138° Southeast  Level Estimated
Mon 01:13:00 AM 17.8099 -83.0339 138° Southeast  Level Estimated
Mon 01:14:00 AM 17.7124 -82.9413 138° Southeast  Level Estimated
Mon 01:15:00 AM 17.6148 -82.8487 138° Southeast  Level Estimated
Mon 01:16:00 AM 17.5172 -82.7563 138° Southeast  Level Estimated
Mon 01:17:00 AM 17.4195 -82.6640 138° Southeast  Level Estimated
Mon 01:18:00 AM 17.3218 -82.5717 138° Southeast  Level Estimated
Mon 01:19:00 AM 17.2241 -82.4796 138° Southeast  Level Estimated
Mon 01:20:00 AM 17.1263 -82.3875 138° Southeast  Level Estimated
Mon 01:21:00 AM 17.0284 -82.2956 138° Southeast  Level Estimated
Mon 01:22:00 AM 16.9305 -82.2037 138° Southeast  Level Estimated
Mon 01:23:00 AM 16.8326 -82.1120 138° Southeast  Level Estimated
Mon 01:24:00 AM 16.7347 -82.0203 138° Southeast  Level Estimated
Mon 01:25:00 AM 16.6367 -81.9287 138° Southeast  Level Estimated
Mon 01:26:00 AM 16.5386 -81.8373 138° Southeast  Level Estimated
Mon 01:27:00 AM 16.4405 -81.7459 138° Southeast  Level Estimated
Mon 01:28:00 AM 16.3424 -81.6546 138° Southeast  Level Estimated
Mon 01:29:00 AM 16.2443 -81.5634 138° Southeast  Level Estimated
Mon 01:30:00 AM 16.1461 -81.4723 138° Southeast  Level Estimated
Mon 01:31:00 AM 16.0478 -81.3813 138° Southeast  Level Estimated
Mon 01:32:00 AM 15.9495 -81.2903 138° Southeast  Level Estimated
Mon 01:33:00 AM 15.8512 -81.1995 138° Southeast  Level Estimated
Mon 01:34:00 AM 15.7529 -81.1087 138° Southeast  Level Estimated
Mon 01:35:00 AM 15.6545 -81.0181 138° Southeast  Level Estimated
Mon 01:36:00 AM 15.5561 -80.9275 138° Southeast  Level Estimated
Mon 01:37:00 AM 15.4576 -80.8370 138° Southeast  Level Estimated
Mon 01:38:00 AM 15.3591 -80.7466 138° Southeast  Level Estimated
Mon 01:39:00 AM 15.2606 -80.6563 139° Southeast  Level Estimated
Mon 01:40:00 AM 15.1620 -80.5661 139° Southeast  Level Estimated
Mon 01:41:00 AM 15.0634 -80.4759 139° Southeast  Level Estimated
Mon 01:42:00 AM 14.9648 -80.3859 139° Southeast  Level Estimated
Mon 01:43:00 AM 14.8661 -80.2959 139° Southeast  Level Estimated
Mon 01:44:00 AM 14.7674 -80.2060 139° Southeast  Level Estimated
Mon 01:45:00 AM 14.6686 -80.1162 139° Southeast  Level Estimated
Mon 01:46:00 AM 14.5698 -80.0264 139° Southeast  Level Estimated
Mon 01:47:00 AM 14.4710 -79.9368 139° Southeast  Level Estimated
Mon 01:48:00 AM 14.3722 -79.8472 139° Southeast  Level Estimated
Mon 01:49:00 AM 14.2733 -79.7577 139° Southeast  Level Estimated
Mon 01:50:00 AM 14.1743 -79.6683 139° Southeast  Level Estimated
Mon 01:51:00 AM 14.0754 -79.5789 139° Southeast  Level Estimated
Mon 01:52:00 AM 13.9764 -79.4897 139° Southeast  Level Estimated
Mon 01:53:00 AM 13.8774 -79.4005 139° Southeast  Level Estimated
Mon 01:54:00 AM 13.7783 -79.3114 139° Southeast  Level Estimated
Mon 01:55:00 AM 13.6793 -79.2223 139° Southeast  Level Estimated
Mon 01:56:00 AM 13.5801 -79.1334 139° Southeast  Level Estimated
Mon 01:57:00 AM 13.4810 -79.0445 139° Southeast  Level Estimated
Mon 01:58:00 AM 13.3818 -78.9557 139° Southeast  Level Estimated
Mon 01:59:00 AM 13.2826 -78.8669 139° Southeast  Level Estimated
Mon 02:00:00 AM 13.1834 -78.7783 139° Southeast  Level Estimated
Mon 02:01:00 AM 13.0841 -78.6897 139° Southeast  Level Estimated
Mon 02:02:00 AM 12.9848 -78.6012 139° Southeast  Level Estimated
Mon 02:03:00 AM 12.8855 -78.5127 139° Southeast  Level Estimated
Mon 02:04:00 AM 12.7861 -78.4243 139° Southeast  Level Estimated
Mon 02:05:00 AM 12.6867 -78.3360 139° Southeast  Level Estimated
Mon 02:06:00 AM 12.5873 -78.2478 139° Southeast  Level Estimated
Mon 02:07:00 AM 12.4879 -78.1596 139° Southeast  Level Estimated
Mon 02:08:00 AM 12.3884 -78.0715 139° Southeast  Level Estimated
Mon 02:09:00 AM 12.2889 -77.9834 139° Southeast  Level Estimated
Mon 02:10:00 AM 12.1894 -77.8955 139° Southeast  Level Estimated
Mon 02:11:00 AM 12.0898 -77.8076 139° Southeast  Level Estimated
Mon 02:12:00 AM 11.9902 -77.7197 139° Southeast  Level Estimated
Mon 02:13:00 AM 11.8906 -77.6319 139° Southeast  Level Estimated
Mon 02:14:00 AM 11.7910 -77.5442 139° Southeast  Level Estimated
Mon 02:15:00 AM 11.6913 -77.4566 139° Southeast  Level Estimated
Mon 02:16:00 AM 11.5916 -77.3690 139° Southeast  Level Estimated
Mon 02:17:00 AM 11.4919 -77.2815 139° Southeast  Level Estimated
Mon 02:18:00 AM 11.3921 -77.1940 139° Southeast  Level Estimated
Mon 02:19:00 AM 11.2922 -77.1065 139° Southeast  Level Estimated
Mon 02:20:00 AM 11.1922 -77.0190 139° Southeast  Level Estimated
Mon 02:21:00 AM 11.0922 -76.9315 139° Southeast  Level Estimated
Mon 02:22:00 AM 10.9922 -76.8441 139° Southeast  Level Estimated
Mon 02:23:00 AM 10.8922 -76.7568 139° Southeast  Level Estimated
Mon 02:24:00 AM 10.7921 -76.6696 139° Southeast  Level Estimated
Mon 02:25:00 AM 10.6920 -76.5824 139° Southeast  Level Estimated
Mon 02:26:00 AM 10.5919 -76.4952 139° Southeast  Level Estimated
Mon 02:27:00 AM 10.4917 -76.4081 139° Southeast  Level Estimated
Mon 02:28:00 AM 10.3915 -76.3211 139° Southeast  Level Estimated
Mon 02:29:00 AM 10.2914 -76.2342 139° Southeast  Level Estimated
Mon 02:30:00 AM 10.1911 -76.1472 140° Southeast  Level Estimated
Mon 02:31:00 AM 10.0909 -76.0604 140° Southeast  Level Estimated
Mon 02:32:00 AM 9.9906 -75.9736 140° Southeast  Level Estimated
Mon 02:33:00 AM 9.8904 -75.8868 140° Southeast  Level Estimated
Mon 02:34:00 AM 9.7900 -75.8001 140° Southeast  Level Estimated
Mon 02:35:00 AM 9.6897 -75.7135 140° Southeast  Level Estimated
Mon 02:36:00 AM 9.5894 -75.6269 140° Southeast  Level Estimated
Mon 02:37:00 AM 9.4890 -75.5403 140° Southeast  Level Estimated
Mon 02:38:00 AM 9.3886 -75.4538 140° Southeast  Level Estimated
Mon 02:39:00 AM 9.2882 -75.3674 140° Southeast  Level Estimated
Mon 02:40:00 AM 9.1877 -75.2810 140° Southeast  Level Estimated
Mon 02:41:00 AM 9.0873 -75.1946 140° Southeast  Level Estimated
Mon 02:42:00 AM 8.9868 -75.1083 140° Southeast  Level Estimated
Mon 02:43:00 AM 8.8863 -75.0221 140° Southeast  Level Estimated
Mon 02:44:00 AM 8.7858 -74.9359 140° Southeast  Level Estimated
Mon 02:44:40 AM 8.2535 -74.9194 137° Southeast 479 551 37,000  Level FlightAware ADS-B (SKEJ / EJA)
Mon 02:45:00 AM 8.6853 -74.8497 140° Southeast  Level Estimated
Mon 02:45:08 AM 8.2079 -74.8778 137° Southeast 481 554 37,000  Level FlightAware ADS-B (SKEJ / EJA)
Mon 02:45:33 AM 8.1670 -74.8404 137° Southeast 482 555 37,000  Level FlightAware ADS-B (SKEJ / EJA)
Mon 02:46:03 AM 8.1173 -74.7950 137° Southeast 483 556 37,000  Level FlightAware ADS-B (SKEJ / EJA)
Mon 02:46:41 AM 8.0540 -74.7373 137° Southeast 483 556 37,000  Level FlightAware ADS-B (SKEJ / EJA)
Mon 02:47:04 AM 8.0164 -74.7030 137° Southeast 484 557 37,000  Level FlightAware ADS-B (SKEJ / EJA)
Mon 02:47:32 AM 7.9695 -74.6602 137° Southeast 484 557 37,000  Level FlightAware ADS-B (SKEJ / EJA)
Mon 02:48:08 AM 7.9084 -74.6046 137° Southeast 485 558 37,000  Level FlightAware ADS-B (SKEJ / EJA)
Mon 02:48:25 AM 7.8802 -74.5789 137° Southeast 486 559 37,000  Level FlightAware ADS-B (SKEJ / EJA)
Mon 02:49:06 AM 7.8127 -74.5174 137° Southeast 487 560 37,000  Level FlightAware ADS-B (SKEJ / EJA)
Mon 02:49:36 AM 7.7615 -74.4708 137° Southeast 488 562 37,000  Level FlightAware ADS-B (SKEJ / EJA)
Mon 02:50:02 AM 7.7169 -74.4302 137° Southeast 489 563 37,000  Level FlightAware ADS-B (SKEJ / EJA)
Mon 02:50:36 AM 7.6612 -74.3796 137° Southeast 491 565 37,000  Level FlightAware ADS-B (SKEJ / EJA)
Mon 02:51:04 AM 7.6135 -74.3362 137° Southeast 492 566 37,000  Level FlightAware ADS-B (SKEJ / EJA)
Mon 02:51:37 AM 7.5575 -74.2853 137° Southeast 494 568 37,000  Level FlightAware ADS-B (SKEJ / EJA)
Mon 02:52:03 AM 7.5123 -74.2443 137° Southeast 494 568 37,000  Level FlightAware ADS-B (SKEJ / EJA)
Mon 02:52:39 AM 7.4510 -74.1886 137° Southeast 495 570 37,000  Level FlightAware ADS-B (SKEJ / EJA)
Mon 02:53:06 AM 7.4066 -74.1483 137° Southeast 495 570 37,000  Level FlightAware ADS-B (SKEJ / EJA)
Mon 02:53:34 AM 7.3581 -74.1043 137° Southeast 497 572 37,000  Level FlightAware ADS-B (SKEJ / EJA)
Mon 02:54:08 AM 7.2990 -74.0506 137° Southeast 499 574 37,000  Level FlightAware ADS-B (SKEJ / EJA)
Mon 02:54:41 AM 7.2427 -73.9995 137° Southeast 499 574 37,000  Level FlightAware ADS-B (SKEJ / EJA)
Mon 02:55:09 AM 7.1935 -73.9550 137° Southeast 499 574 37,000  Level FlightAware ADS-B (SKEJ / EJA)
Mon 02:55:40 AM 7.1419 -73.9082 137° Southeast 496 571 37,000  Level FlightAware ADS-B (SKEJ / EJA)
Mon 02:56:08 AM 7.0926 -73.8635 137° Southeast 494 568 37,000  Level FlightAware ADS-B (SKEJ / EJA)
Mon 02:56:42 AM 7.0333 -73.8133 143° Southeast 493 567 37,000  Level FlightAware ADS-B (SKEJ / EJA)
Mon 02:57:10 AM 6.9798 -73.7792 150° Southeast 493 567 37,000  Level FlightAware ADS-B (SKEJ / EJA)
Mon 02:57:45 AM 6.9104 -73.7409 151° Southeast 493 567 37,000  Level FlightAware ADS-B (SKEJ / EJA)
Mon 02:58:16 AM 6.8691 -73.7187 151° Southeast 491 565 37,000  Level FlightAware ADS-B (SKEJ / EJA)
Mon 03:00:00 AM 6.6684 -73.6097 152° Southeast  Level FlightAware Approximate
Mon 03:01:00 AM 6.5527 -73.5469 152° Southeast  Level FlightAware Approximate
Mon 03:02:00 AM 6.4369 -73.4841 152° Southeast  Level FlightAware Approximate
Mon 03:03:00 AM 6.3211 -73.4213 152° Southeast  Level FlightAware Approximate
Mon 03:04:00 AM 6.2053 -73.3586 152° Southeast  Level FlightAware Approximate
Mon 03:05:00 AM 6.0895 -73.2959 152° Southeast  Level FlightAware Approximate
Mon 03:06:00 AM 5.9737 -73.2332 152° Southeast  Level FlightAware Approximate
Mon 03:07:00 AM 5.8579 -73.1706 152° Southeast  Level FlightAware Approximate
Mon 03:08:00 AM 5.7421 -73.1079 152° Southeast  Level FlightAware Approximate
Mon 03:09:00 AM 5.6262 -73.0453 152° Southeast  Level FlightAware Approximate
Mon 03:10:00 AM 5.5104 -72.9828 152° Southeast  Level FlightAware Approximate
Mon 03:11:00 AM 5.3945 -72.9202 152° Southeast  Level FlightAware Approximate
Mon 03:12:00 AM 5.2787 -72.8577 152° Southeast  Level FlightAware Approximate
Mon 03:13:00 AM 5.1628 -72.7952 152° Southeast  Level FlightAware Approximate
Mon 03:14:00 AM 5.0470 -72.7327 152° Southeast  Level FlightAware Approximate
Mon 03:15:00 AM 4.9311 -72.6702 152° Southeast  Level FlightAware Approximate
Mon 03:16:00 AM 4.8152 -72.6078 152° Southeast  Level FlightAware Approximate
Mon 03:17:00 AM 4.6993 -72.5454 152° Southeast  Level FlightAware Approximate
Mon 03:18:00 AM 4.5834 -72.4830 152° Southeast  Level FlightAware Approximate
Mon 03:19:00 AM 4.4675 -72.4206 152° Southeast  Level FlightAware Approximate
Mon 03:20:00 AM 4.3517 -72.3582 152° Southeast  Level FlightAware Approximate
Mon 03:21:00 AM 4.2358 -72.2959 152° Southeast  Level FlightAware Approximate
Mon 03:22:00 AM 4.1198 -72.2336 152° Southeast  Level FlightAware Approximate
Mon 03:23:00 AM 4.0039 -72.1713 152° Southeast  Level FlightAware Approximate
Mon 03:24:00 AM 3.8915 -72.1037 145° Southeast  Level FlightAware Approximate
Mon 03:25:00 AM 3.7843 -72.0278 145° Southeast  Level FlightAware Approximate
Mon 03:26:00 AM 3.6771 -71.9520 145° Southeast  Level FlightAware Approximate
Mon 03:27:00 AM 3.5698 -71.8761 145° Southeast  Level FlightAware Approximate
Mon 03:28:00 AM 3.4625 -71.8002 145° Southeast  Level FlightAware Approximate
Mon 03:29:00 AM 3.3553 -71.7244 145° Southeast  Level FlightAware Approximate
Mon 03:30:00 AM 3.2480 -71.6486 145° Southeast  Level FlightAware Approximate
Mon 03:31:00 AM 3.1404 -71.5732 145° Southeast  Level FlightAware Approximate
Mon 03:32:00 AM 3.0328 -71.4979 145° Southeast  Level FlightAware Approximate
Mon 03:33:00 AM 2.9252 -71.4226 145° Southeast  Level FlightAware Approximate
Mon 03:34:00 AM 2.8176 -71.3473 145° Southeast  Level FlightAware Approximate
Mon 03:35:00 AM 2.7100 -71.2719 145° Southeast  Level FlightAware Approximate
Mon 03:36:00 AM 2.6026 -71.1963 145° Southeast  Level FlightAware Approximate
Mon 03:37:00 AM 2.4952 -71.1207 145° Southeast  Level FlightAware Approximate
Mon 03:38:00 AM 2.3879 -71.0451 145° Southeast  Level FlightAware Approximate
Mon 03:39:00 AM 2.2805 -70.9695 145° Southeast  Level FlightAware Approximate
Mon 03:40:00 AM 2.1730 -70.8939 145° Southeast  Level FlightAware Approximate
Mon 03:41:00 AM 2.0656 -70.8184 145° Southeast  Level FlightAware Approximate
Mon 03:42:00 AM 1.9582 -70.7428 145° Southeast  Level FlightAware Approximate
Mon 03:43:00 AM 1.8508 -70.6673 145° Southeast  Level FlightAware Approximate
Mon 03:44:00 AM 1.7434 -70.5918 145° Southeast  Level FlightAware Approximate
Mon 03:45:00 AM 1.6360 -70.5163 145° Southeast  Level FlightAware Approximate
Mon 03:46:00 AM 1.5285 -70.4408 145° Southeast  Level FlightAware Approximate
Mon 03:47:00 AM 1.4211 -70.3653 145° Southeast  Level FlightAware Approximate
Mon 03:48:00 AM 1.3137 -70.2898 145° Southeast  Level FlightAware Approximate
Mon 03:49:00 AM 1.2086 -70.2113 138° Southeast  Level FlightAware Approximate
Mon 03:50:00 AM 1.1105 -70.1240 138° Southeast  Level FlightAware Approximate
Mon 03:51:00 AM 1.0125 -70.0367 138° Southeast  Level FlightAware Approximate
Mon 03:52:00 AM 0.9144 -69.9494 138° Southeast  Level FlightAware Approximate
Mon 03:53:00 AM 0.8163 -69.8621 138° Southeast  Level FlightAware Approximate
Mon 03:54:00 AM 0.7183 -69.7748 138° Southeast  Level FlightAware Approximate
Mon 03:55:00 AM 0.6202 -69.6875 138° Southeast  Level FlightAware Approximate
Mon 03:56:00 AM 0.5221 -69.6002 138° Southeast  Level FlightAware Approximate
Mon 03:57:00 AM 0.4241 -69.5129 138° Southeast  Level FlightAware Approximate
Mon 03:58:00 AM 0.3260 -69.4256 138° Southeast  Level FlightAware Approximate
Mon 03:59:00 AM 0.2279 -69.3383 138° Southeast  Level FlightAware Approximate
Mon 04:00:00 AM 0.1298 -69.2511 138° Southeast  Level FlightAware Approximate
Mon 04:01:00 AM 0.0317 -69.1638 138° Southeast  Level FlightAware Approximate
Mon 04:02:00 AM -0.0663 -69.0765 138° Southeast  Level FlightAware Approximate
Mon 04:03:00 AM -0.1644 -68.9892 138° Southeast  Level FlightAware Approximate
Mon 04:04:00 AM -0.2625 -68.9019 138° Southeast  Level FlightAware Approximate
Mon 04:05:00 AM -0.3606 -68.8147 138° Southeast  Level FlightAware Approximate
Mon 04:06:00 AM -0.4586 -68.7274 138° Southeast  Level FlightAware Approximate
Mon 04:07:00 AM -0.5567 -68.6401 138° Southeast  Level FlightAware Approximate
Mon 04:08:00 AM -0.6548 -68.5528 138° Southeast  Level FlightAware Approximate
Mon 04:09:00 AM -0.7529 -68.4655 138° Southeast  Level FlightAware Approximate
Mon 04:10:00 AM -0.8509 -68.3782 138° Southeast  Level FlightAware Approximate
Mon 04:11:00 AM -0.9490 -68.2909 138° Southeast  Level FlightAware Approximate
Mon 04:12:00 AM -1.0471 -68.2036 138° Southeast  Level FlightAware Approximate
Mon 04:13:00 AM -1.1451 -68.1163 138° Southeast  Level FlightAware Approximate
Mon 04:14:00 AM -1.2432 -68.0290 138° Southeast  Level FlightAware Approximate
Mon 04:15:00 AM -1.3412 -67.9416 138° Southeast  Level FlightAware Approximate
Mon 04:16:00 AM -1.4393 -67.8543 138° Southeast  Level FlightAware Approximate
Mon 04:17:00 AM -1.5374 -67.7670 138° Southeast  Level FlightAware Approximate
Mon 04:18:00 AM -1.6354 -67.6796 138° Southeast  Level FlightAware Approximate
Mon 04:19:00 AM -1.7334 -67.5923 138° Southeast  Level FlightAware Approximate
Mon 04:20:00 AM -1.8315 -67.5049 138° Southeast  Level FlightAware Approximate
Mon 04:21:00 AM -1.9295 -67.4175 138° Southeast  Level FlightAware Approximate
Mon 04:22:00 AM -2.0275 -67.3301 138° Southeast  Level FlightAware Approximate
Mon 04:23:00 AM -2.1256 -67.2427 138° Southeast  Level FlightAware Approximate
Mon 04:24:00 AM -2.2236 -67.1553 138° Southeast  Level FlightAware Approximate
Mon 04:25:00 AM -2.3216 -67.0679 138° Southeast  Level FlightAware Approximate
Mon 04:26:00 AM -2.4196 -66.9805 138° Southeast  Level FlightAware Approximate
Mon 04:27:00 AM -2.5176 -66.8931 138° Southeast  Level FlightAware Approximate
Mon 04:28:00 AM -2.6156 -66.8056 138° Southeast  Level FlightAware Approximate
Mon 04:29:00 AM -2.7136 -66.7181 138° Southeast  Level FlightAware Approximate
Mon 04:30:00 AM -2.8116 -66.6306 138° Southeast  Level FlightAware Approximate
Mon 04:31:00 AM -2.9096 -66.5431 138° Southeast  Level FlightAware Approximate
Mon 04:32:00 AM -3.0076 -66.4556 138° Southeast  Level FlightAware Approximate
Mon 04:33:00 AM -3.1055 -66.3681 138° Southeast  Level FlightAware Approximate
Mon 04:34:00 AM -3.2035 -66.2805 138° Southeast  Level FlightAware Approximate
Mon 04:35:00 AM -3.3014 -66.1930 138° Southeast  Level FlightAware Approximate
Mon 04:36:00 AM -3.3994 -66.1054 138° Southeast  Level FlightAware Approximate
Mon 04:37:00 AM -3.4973 -66.0178 138° Southeast  Level FlightAware Approximate
Mon 04:38:00 AM -3.5952 -65.9302 138° Southeast  Level FlightAware Approximate
Mon 04:39:00 AM -3.6932 -65.8426 138° Southeast  Level FlightAware Approximate
Mon 04:40:00 AM -3.7911 -65.7549 138° Southeast  Level FlightAware Approximate
Mon 04:41:00 AM -3.8890 -65.6672 138° Southeast  Level FlightAware Approximate
Mon 04:42:00 AM -3.9869 -65.5795 138° Southeast  Level FlightAware Approximate
Mon 04:43:00 AM -4.0848 -65.4918 138° Southeast  Level FlightAware Approximate
Mon 04:44:00 AM -4.1826 -65.4041 138° Southeast  Level FlightAware Approximate
Mon 04:45:00 AM -4.2805 -65.3163 138° Southeast  Level FlightAware Approximate
Mon 04:46:00 AM -4.3783 -65.2286 138° Southeast  Level FlightAware Approximate
Mon 04:47:00 AM -4.4762 -65.1407 138° Southeast  Level FlightAware Approximate
Mon 04:48:00 AM -4.5740 -65.0529 138° Southeast  Level FlightAware Approximate
Mon 04:49:00 AM -4.6719 -64.9651 138° Southeast  Level FlightAware Approximate
Mon 04:50:00 AM -4.7697 -64.8772 138° Southeast  Level FlightAware Approximate
Mon 04:51:00 AM -4.8675 -64.7893 138° Southeast  Level FlightAware Approximate
Mon 04:52:00 AM -4.9653 -64.7014 138° Southeast  Level FlightAware Approximate
Mon 04:53:00 AM -5.0630 -64.6134 138° Southeast  Level FlightAware Approximate
Mon 04:54:00 AM -5.1608 -64.5254 138° Southeast  Level FlightAware Approximate
Mon 04:55:00 AM -5.2586 -64.4374 138° Southeast  Level FlightAware Approximate
Mon 04:56:00 AM -5.3563 -64.3494 138° Southeast  Level FlightAware Approximate
Mon 04:57:00 AM -5.4540 -64.2613 138° Southeast  Level FlightAware Approximate
Mon 04:58:00 AM -5.5517 -64.1732 138° Southeast  Level FlightAware Approximate
Mon 04:59:00 AM -5.6494 -64.0851 138° Southeast  Level FlightAware Approximate
Mon 05:00:00 AM -5.7471 -63.9970 138° Southeast  Level FlightAware Approximate
Mon 05:01:00 AM -5.8448 -63.9088 138° Southeast  Level FlightAware Approximate
Mon 05:02:00 AM -5.9425 -63.8206 138° Southeast  Level FlightAware Approximate
Mon 05:03:00 AM -6.0401 -63.7323 138° Southeast  Level FlightAware Approximate
Mon 05:04:00 AM -6.1378 -63.6441 138° Southeast  Level FlightAware Approximate
Mon 05:05:00 AM -6.2354 -63.5558 138° Southeast  Level FlightAware Approximate
Mon 05:06:00 AM -6.3330 -63.4674 138° Southeast  Level FlightAware Approximate
Mon 05:07:00 AM -6.4306 -63.3791 138° Southeast  Level FlightAware Approximate
Mon 05:08:00 AM -6.5281 -63.2906 138° Southeast  Level FlightAware Approximate
Mon 05:09:00 AM -6.6257 -63.2022 138° Southeast  Level FlightAware Approximate
Mon 05:10:00 AM -6.7232 -63.1137 138° Southeast  Level FlightAware Approximate
Mon 05:11:00 AM -6.8208 -63.0252 138° Southeast  Level FlightAware Approximate
Mon 05:12:00 AM -6.9183 -62.9367 138° Southeast  Level FlightAware Approximate
Mon 05:13:00 AM -7.0158 -62.8481 138° Southeast  Level FlightAware Approximate
Mon 05:14:00 AM -7.1133 -62.7595 138° Southeast  Level FlightAware Approximate
Mon 05:15:00 AM -7.2107 -62.6708 138° Southeast  Level FlightAware Approximate
Mon 05:16:00 AM -7.3082 -62.5821 138° Southeast  Level FlightAware Approximate
Mon 05:17:00 AM -7.4056 -62.4934 138° Southeast  Level FlightAware Approximate
Mon 05:18:00 AM -7.5030 -62.4046 138° Southeast  Level FlightAware Approximate
Mon 05:19:00 AM -7.6004 -62.3158 138° Southeast  Level FlightAware Approximate
Mon 05:20:00 AM -7.6979 -62.2268 138° Southeast  Level FlightAware Approximate
Mon 05:21:00 AM -7.7955 -62.1377 138° Southeast  Level FlightAware Approximate
Mon 05:22:00 AM -7.8930 -62.0486 138° Southeast  Level FlightAware Approximate
Mon 05:23:00 AM -7.9905 -61.9595 138° Southeast  Level FlightAware Approximate
Mon 05:24:00 AM -8.0879 -61.8703 138° Southeast  Level FlightAware Approximate
Mon 05:25:00 AM -8.1854 -61.7811 138° Southeast  Level FlightAware Approximate
Mon 05:26:00 AM -8.2828 -61.6918 138° Southeast  Level FlightAware Approximate
Mon 05:27:00 AM -8.3802 -61.6025 138° Southeast  Level FlightAware Approximate
Mon 05:28:00 AM -8.4776 -61.5132 138° Southeast  Level FlightAware Approximate
Mon 05:29:00 AM -8.5750 -61.4238 138° Southeast  Level FlightAware Approximate
Mon 05:30:00 AM -8.6724 -61.3343 138° Southeast  Level FlightAware Approximate
Mon 05:31:00 AM -8.7697 -61.2448 138° Southeast  Level FlightAware Approximate
Mon 05:32:00 AM -8.8670 -61.1553 138° Southeast  Level FlightAware Approximate
Mon 05:33:00 AM -8.9643 -61.0657 138° Southeast  Level FlightAware Approximate
Mon 05:34:00 AM -9.0616 -60.9761 138° Southeast  Level FlightAware Approximate
Mon 05:35:00 AM -9.1588 -60.8864 138° Southeast  Level FlightAware Approximate
Mon 05:36:00 AM -9.2560 -60.7966 138° Southeast  Level FlightAware Approximate
Mon 05:37:00 AM -9.3532 -60.7069 138° Southeast  Level FlightAware Approximate
Mon 05:38:00 AM -9.4504 -60.6170 138° Southeast  Level FlightAware Approximate
Mon 05:39:00 AM -9.5476 -60.5271 138° Southeast  Level FlightAware Approximate
Mon 05:40:00 AM -9.6447 -60.4372 138° Southeast  Level FlightAware Approximate
Mon 05:41:00 AM -9.7418 -60.3472 138° Southeast  Level FlightAware Approximate
Mon 05:42:00 AM -9.8389 -60.2572 138° Southeast  Level FlightAware Approximate
Mon 05:43:00 AM -9.9359 -60.1671 138° Southeast  Level FlightAware Approximate
Mon 05:44:00 AM -10.0330 -60.0770 138° Southeast  Level FlightAware Approximate
Mon 05:45:00 AM -10.1300 -59.9868 138° Southeast  Level FlightAware Approximate
Mon 05:46:00 AM -10.2270 -59.8965 138° Southeast  Level FlightAware Approximate
Mon 05:47:00 AM -10.3239 -59.8062 138° Southeast  Level FlightAware Approximate
Mon 05:48:00 AM -10.4209 -59.7158 137° Southeast  Level FlightAware Approximate
Mon 05:49:00 AM -10.5178 -59.6254 137° Southeast  Level FlightAware Approximate
Mon 05:50:00 AM -10.6147 -59.5349 137° Southeast  Level FlightAware Approximate
Mon 05:51:00 AM -10.7115 -59.4444 137° Southeast  Level FlightAware Approximate
Mon 05:52:00 AM -10.8084 -59.3538 137° Southeast  Level FlightAware Approximate
Mon 05:53:00 AM -10.9052 -59.2632 137° Southeast  Level FlightAware Approximate
Mon 05:54:00 AM -11.0021 -59.1723 137° Southeast  Level FlightAware Approximate
Mon 05:55:00 AM -11.0991 -59.0814 137° Southeast  Level FlightAware Approximate
Mon 05:56:00 AM -11.1960 -58.9904 137° Southeast  Level FlightAware Approximate
Mon 05:56:20 AM -11.5536 -57.3539 132° Southeast 510 587 37,000  Level FlightAware ADS-B
Mon 06:01:00 AM -12.0139 -56.8273 132° Southeast 510 587 37,000  Level FlightAware ADS-B
Mon 06:01:40 AM -12.0734 -56.7589 132° Southeast 510 587 37,000  Level FlightAware ADS-B
Mon 06:02:19 AM -12.1310 -56.6928 132° Southeast 510 587 37,000  Level FlightAware ADS-B
Mon 06:03:01 AM -12.2043 -56.6084 131° Southeast 511 588 37,000  Level FlightAware ADS-B
Mon 06:03:40 AM -12.2662 -56.5372 132° Southeast 512 589 37,000  Level FlightAware ADS-B
Mon 06:04:21 AM -12.3303 -56.4634 131° Southeast 512 589 37,000  Level FlightAware ADS-B
Mon 06:05:01 AM -12.3929 -56.3913 131° Southeast 512 589 37,000  Level FlightAware ADS-B
Mon 06:05:38 AM -12.4493 -56.3262 131° Southeast 512 589 37,000  Level FlightAware ADS-B
Mon 06:06:21 AM -12.5173 -56.2484 133° Southeast 512 589 37,000  Level FlightAware ADS-B
Mon 06:06:59 AM -12.5824 -56.1808 135° Southeast 511 588 37,000  Level FlightAware ADS-B
Mon 06:07:41 AM -12.6534 -56.1103 136° Southeast 511 588 37,000  Level FlightAware ADS-B
Mon 06:08:21 AM -12.7215 -56.0428 136° Southeast 511 588 37,000  Level FlightAware ADS-B
Mon 06:09:00 AM -12.7568 -56.0078 136° Southeast 510 587 37,000  Level FlightAware ADS-B
Mon 06:09:49 AM -12.8626 -55.9026 136° Southeast 511 588 37,000  Level FlightAware ADS-B
Mon 06:10:29 AM -12.9373 -55.8284 136° Southeast 511 588 37,000  Level FlightAware ADS-B
Mon 06:11:09 AM -13.0063 -55.7597 136° Southeast 511 588 37,000  Level FlightAware ADS-B
Mon 06:11:49 AM -13.0738 -55.6925 136° Southeast 513 590 37,000  Level FlightAware ADS-B
Mon 06:12:29 AM -13.1386 -55.6279 136° Southeast 513 590 37,000  Level FlightAware ADS-B
Mon 06:13:09 AM -13.2100 -55.5567 136° Southeast 513 590 37,000  Level FlightAware ADS-B
Mon 06:13:49 AM -13.2784 -55.4884 136° Southeast 512 589 37,000 152 Level FlightAware ADS-B
Mon 06:14:28 AM -13.3435 -55.4234 136° Southeast 513 590 37,200 750 Climbing FlightAware ADS-B
Mon 06:15:09 AM -13.4140 -55.3528 136° Southeast 508 585 38,000 1,037 Climbing FlightAware ADS-B
Mon 06:15:49 AM -13.4785 -55.2883 136° Southeast 506 582 38,600 750 Climbing FlightAware ADS-B
Mon 06:16:29 AM -13.5485 -55.2182 136° Southeast 506 582 39,000 300 Climbing FlightAware ADS-B
Mon 06:17:09 AM -13.6145 -55.1521 136° Southeast 505 581 39,000  Level FlightAware ADS-B
Mon 06:17:49 AM -13.6812 -55.0851 136° Southeast 504 580 39,000  Level FlightAware ADS-B
Mon 06:18:29 AM -13.7489 -55.0171 136° Southeast 504 580 39,000  Level FlightAware ADS-B
Mon 06:19:09 AM -13.8141 -54.9515 136° Southeast 504 580 39,000  Level FlightAware ADS-B
Mon 06:19:49 AM -13.8793 -54.8859 136° Southeast 504 580 39,000  Level FlightAware ADS-B
Mon 06:20:29 AM -13.9459 -54.8189 136° Southeast 504 580 39,000  Level FlightAware ADS-B
Mon 06:21:09 AM -14.0152 -54.7492 135° Southeast 503 579 39,000  Level FlightAware ADS-B
Mon 06:21:49 AM -14.0800 -54.6837 135° Southeast 503 579 39,000  Level FlightAware ADS-B
Mon 06:22:27 AM -14.1404 -54.6228 135° Southeast 503 579 39,000  Level FlightAware ADS-B
Mon 06:23:08 AM -14.2137 -54.5487 135° Southeast 502 578 39,000  Level FlightAware ADS-B
Mon 06:25:00 AM -14.4060 -54.3911 142° Southeast  Level Estimated
Mon 06:26:00 AM -14.5089 -54.3065 142° Southeast  Level Estimated
Mon 06:27:00 AM -14.6118 -54.2219 141° Southeast  Level Estimated
Mon 06:28:00 AM -14.7147 -54.1372 141° Southeast  Level Estimated
Mon 06:29:00 AM -14.8175 -54.0524 141° Southeast  Level Estimated
Mon 06:30:00 AM -14.9204 -53.9676 141° Southeast  Level Estimated
Mon 06:31:00 AM -15.0231 -53.8826 141° Southeast  Level Estimated
Mon 06:32:00 AM -15.1259 -53.7976 141° Southeast  Level Estimated
Mon 06:33:00 AM -15.2286 -53.7125 141° Southeast  Level Estimated
Mon 06:34:00 AM -15.3313 -53.6273 141° Southeast  Level Estimated
Mon 06:35:00 AM -15.4340 -53.5420 141° Southeast  Level Estimated
Mon 06:36:00 AM -15.5366 -53.4567 141° Southeast  Level Estimated
Mon 06:37:00 AM -15.6392 -53.3713 141° Southeast  Level Estimated
Mon 06:38:00 AM -15.7417 -53.2857 141° Southeast  Level Estimated
Mon 06:39:00 AM -15.8442 -53.2001 141° Southeast  Level Estimated
Mon 06:40:00 AM -15.9467 -53.1144 141° Southeast  Level Estimated
Mon 06:41:00 AM -16.0492 -53.0286 141° Southeast  Level Estimated
Mon 06:42:00 AM -16.1516 -52.9427 141° Southeast  Level Estimated
Mon 06:43:00 AM -16.2540 -52.8568 141° Southeast  Level Estimated
Mon 06:44:00 AM -16.3564 -52.7707 141° Southeast  Level Estimated
Mon 06:45:00 AM -16.4587 -52.6846 141° Southeast  Level Estimated
Mon 06:46:00 AM -16.5610 -52.5983 141° Southeast  Level Estimated
Mon 06:47:00 AM -16.6632 -52.5120 141° Southeast  Level Estimated
Mon 06:48:00 AM -16.7654 -52.4256 141° Southeast  Level Estimated
Mon 06:49:00 AM -16.8676 -52.3391 141° Southeast  Level Estimated
Mon 06:50:00 AM -16.9697 -52.2525 141° Southeast  Level Estimated
Mon 06:51:00 AM -17.0718 -52.1658 141° Southeast  Level Estimated
Mon 06:52:00 AM -17.1739 -52.0790 141° Southeast  Level Estimated
Mon 06:53:00 AM -17.2759 -51.9921 141° Southeast  Level Estimated
Mon 06:54:00 AM -17.3779 -51.9051 141° Southeast  Level Estimated
Mon 06:55:00 AM -17.4799 -51.8180 141° Southeast  Level Estimated
Mon 06:56:00 AM -17.5818 -51.7308 141° Southeast  Level Estimated
Mon 06:57:00 AM -17.6837 -51.6436 141° Southeast  Level Estimated
Mon 06:58:00 AM -17.7855 -51.5562 141° Southeast  Level Estimated
Mon 06:59:00 AM -17.8873 -51.4687 141° Southeast  Level Estimated
Mon 07:00:00 AM -17.9891 -51.3811 141° Southeast  Level Estimated
Mon 07:01:00 AM -18.0908 -51.2934 141° Southeast  Level Estimated
Mon 07:02:00 AM -18.1925 -51.2057 141° Southeast  Level Estimated
Mon 07:03:00 AM -18.2941 -51.1178 141° Southeast  Level Estimated
Mon 07:04:00 AM -18.3957 -51.0298 141° Southeast  Level Estimated
Mon 07:05:00 AM -18.4973 -50.9417 141° Southeast  Level Estimated
Mon 07:06:00 AM -18.5988 -50.8535 141° Southeast  Level Estimated
Mon 07:07:00 AM -18.7003 -50.7652 141° Southeast  Level Estimated
Mon 07:08:00 AM -18.8017 -50.6768 140° Southeast  Level Estimated
Mon 07:09:00 AM -18.9031 -50.5883 140° Southeast  Level Estimated
Mon 07:10:00 AM -19.0045 -50.4996 140° Southeast  Level Estimated
Mon 07:11:00 AM -19.1058 -50.4109 140° Southeast  Level Estimated
Mon 07:12:00 AM -19.2071 -50.3221 140° Southeast  Level Estimated
Mon 07:13:00 AM -19.3083 -50.2331 140° Southeast  Level Estimated
Mon 07:14:00 AM -19.4095 -50.1441 140° Southeast  Level Estimated
Mon 07:15:00 AM -19.5106 -50.0549 140° Southeast  Level Estimated
Mon 07:16:00 AM -19.6117 -49.9656 140° Southeast  Level Estimated
Mon 07:17:00 AM -19.7127 -49.8762 140° Southeast  Level Estimated
Mon 07:18:00 AM -19.8138 -49.7867 140° Southeast  Level Estimated
Mon 07:19:00 AM -19.9147 -49.6971 140° Southeast  Level Estimated
Mon 07:20:00 AM -20.0156 -49.6074 140° Southeast  Level Estimated
Mon 07:21:00 AM -20.1165 -49.5175 140° Southeast  Level Estimated
Mon 07:22:00 AM -20.2238 -49.4365 145° Southeast  Level FlightAware Approximate
Mon 07:23:00 AM -20.3311 -49.3554 145° Southeast  Level FlightAware Approximate
Mon 07:23:24 AM -19.0692 -47.5446 151° Southeast 495 570 39,000  Level FlightAware ADS-B (SDAM)
Mon 07:24:33 AM -19.2117 -47.4690 157° South 489 563 39,000  Level FlightAware ADS-B (SDAM)
Mon 07:25:06 AM -19.2809 -47.4406 159° South 487 560 39,000  Level FlightAware ADS-B (SDAM)
Mon 07:25:58 AM -19.3925 -47.3990 160° South 485 558 39,000  Level FlightAware ADS-B (SDAM)
Mon 07:26:28 AM -19.4545 -47.3766 161° South 486 559 39,000  Level FlightAware ADS-B (SDAM)
Mon 07:26:58 AM -19.5207 -47.3528 161° South 486 559 39,000  Level FlightAware ADS-B (SDAM)
Mon 07:27:28 AM -19.5802 -47.3315 161° South 485 558 39,000  Level FlightAware ADS-B (SDAM)
Mon 07:27:58 AM -19.6486 -47.3069 161° South 485 558 39,000  Level FlightAware ADS-B (SDAM)
Mon 07:28:28 AM -19.7114 -47.2843 161° South 485 558 39,000  Level FlightAware ADS-B (SDAM)
Mon 07:28:58 AM -19.7702 -47.2631 161° South 485 558 39,000  Level FlightAware ADS-B (SDAM)
Mon 07:29:29 AM -19.8373 -47.2388 161° South 485 558 39,000  Level FlightAware ADS-B (SDAM)
Mon 07:29:58 AM -19.9034 -47.2148 161° South 484 557 39,000  Level FlightAware ADS-B (SDAM)
Mon 07:30:29 AM -19.9677 -47.1915 161° South 484 557 39,000  Level FlightAware ADS-B (SDAM)
Mon 07:30:58 AM -20.0310 -47.1686 161° South 483 556 39,000  Level FlightAware ADS-B (SDAM)
Mon 07:31:28 AM -20.0935 -47.1459 161° South 483 556 39,000  Level FlightAware ADS-B (SDAM)
Mon 07:31:59 AM -20.1586 -47.1222 161° South 483 556 39,000  Level FlightAware ADS-B (SDAM)
Mon 07:32:28 AM -20.2218 -47.0992 161° South 483 556 39,000  Level FlightAware ADS-B (SDAM)
Mon 07:32:58 AM -20.2854 -47.0760 160° South 483 556 39,000  Level FlightAware ADS-B (SDAM)
Mon 07:33:28 AM -20.3479 -47.0532 161° South 483 556 39,000  Level FlightAware ADS-B (SDAM)
Mon 07:33:58 AM -20.4121 -47.0298 161° South 483 556 39,000  Level FlightAware ADS-B (SDAM)
Mon 07:34:29 AM -20.4766 -47.0063 160° South 483 556 39,000  Level FlightAware ADS-B (SDAM)
Mon 07:34:58 AM -20.5400 -46.9831 160° South 483 556 39,000  Level FlightAware ADS-B (SDAM)
Mon 07:35:24 AM -20.5873 -46.9658 160° South 484 557 39,000  Level FlightAware ADS-B (SDAM)
Mon 07:35:58 AM -20.6651 -46.9372 161° South 485 558 39,000  Level FlightAware ADS-B (SDAM)
Mon 07:36:28 AM -20.7295 -46.9136 161° South 485 558 39,000  Level FlightAware ADS-B (SDAM)
Mon 07:36:58 AM -20.7951 -46.8896 161° South 485 558 39,000  Level FlightAware ADS-B (SDAM)
Mon 07:37:29 AM -20.8591 -46.8662 160° South 485 558 39,000  Level FlightAware ADS-B (SDAM)
Mon 07:37:58 AM -20.9228 -46.8427 160° South 485 558 39,000  Level FlightAware ADS-B (SDAM)
Mon 07:38:28 AM -20.9855 -46.8197 160° South 486 559 39,000  Level FlightAware ADS-B (SDAM)
Mon 07:38:58 AM -21.0494 -46.7961 160° South 486 559 39,000  Level FlightAware ADS-B (SDAM)
Mon 07:39:28 AM -21.1147 -46.7720 160° South 486 559 39,000  Level FlightAware ADS-B (SDAM)
Mon 07:39:58 AM -21.1769 -46.7491 160° South 487 560 39,000  Level FlightAware ADS-B (SDAM)
Mon 07:40:28 AM -21.2423 -46.7250 160° South 486 559 39,000  Level FlightAware ADS-B (SDAM)
Mon 07:40:59 AM -21.3069 -46.7011 160° South 486 559 39,000  Level FlightAware ADS-B (SDAM)
Mon 07:41:29 AM -21.3709 -46.6775 160° South 486 559 39,000  Level FlightAware ADS-B (SDAM)
Mon 07:41:58 AM -21.4335 -46.6543 160° South 486 559 39,000  Level FlightAware ADS-B (SDAM)
Mon 07:42:28 AM -21.4978 -46.6304 160° South 486 559 39,000  Level FlightAware ADS-B (SDAM)
Mon 07:42:58 AM -21.5622 -46.6066 160° South 486 559 39,000  Level FlightAware ADS-B (SDAM)
Mon 07:43:28 AM -21.6255 -46.5830 160° South 486 559 39,000  Level FlightAware ADS-B (SDAM)
Mon 07:43:59 AM -21.6900 -46.5591 160° South 487 560 39,000  Level FlightAware ADS-B (SDAM)
Mon 07:44:28 AM -21.7531 -46.5355 160° South 487 560 39,000  Level FlightAware ADS-B (SDAM)
Mon 07:44:58 AM -21.8173 -46.5116 160° South 487 560 39,000  Level FlightAware ADS-B (SDAM)
Mon 07:45:28 AM -21.8818 -46.4877 160° South 487 560 39,000 -400 Level FlightAware ADS-B (SDAM)
Mon 07:45:58 AM -21.9456 -46.4639 160° South 483 556 38,600 -1,700 Descending FlightAware ADS-B (SDAM)
Mon 07:46:28 AM -22.0094 -46.4401 160° South 485 558 37,300 -2,459 Descending FlightAware ADS-B (SDAM)
Mon 07:46:59 AM -22.0730 -46.4163 160° South 484 557 36,100 -2,400 Descending FlightAware ADS-B (SDAM)
Mon 07:47:28 AM -22.1367 -46.3925 160° South 482 555 34,900 -2,237 Descending FlightAware ADS-B (SDAM)
Mon 07:47:58 AM -22.1996 -46.3689 160° South 473 544 33,900 -2,800 Descending FlightAware ADS-B (SDAM)
Mon 07:48:28 AM -22.2601 -46.3462 161° South 464 534 32,100 -4,200 Descending FlightAware ADS-B (SDAM)
Mon 07:48:58 AM -22.3201 -46.3238 160° South 445 512 29,700 -3,934 Descending FlightAware ADS-B (SDAM)
Mon 07:49:29 AM -22.3795 -46.3017 162° South 441 507 28,100 -2,459 Descending FlightAware ADS-B (SDAM)
Mon 07:49:59 AM -22.4393 -46.2896 174° South 430 495 27,200 -1,932 Descending FlightAware ADS-B (SDAM)
Mon 07:50:28 AM -22.4969 -46.2868 178° South 424 488 26,200 -2,000 Descending FlightAware ADS-B (SDAM)
Mon 07:50:59 AM -22.5565 -46.2861 179° South 418 481 25,200 -1,938 Descending FlightAware ADS-B (SDAM)
Mon 07:51:33 AM -22.6240 -46.2854 179° South 411 473 24,100 -1,969 Descending FlightAware ADS-B (SDAM)
Mon 07:52:03 AM -22.6804 -46.2847 179° South 406 467 23,100 -2,000 Descending FlightAware ADS-B (SDAM)
Mon 07:52:33 AM -22.7364 -46.2839 179° South 400 460 22,100 -1,869 Descending FlightAware ADS-B (SDAM)
Mon 07:53:04 AM -22.7919 -46.2829 178° South 394 453 21,200 -857 Descending FlightAware ADS-B (SDAM)
Mon 07:53:50 AM -22.8752 -46.2815 179° South 379 436 21,000 -789 Descending FlightAware ADS-B
Mon 07:54:20 AM -22.9278 -46.2806 179° South 379 436 20,200 -1,475 Descending FlightAware ADS-B
Mon 07:54:51 AM -22.9796 -46.2797 179° South 373 429 19,500 -2,136 Descending FlightAware ADS-B
Mon 07:55:19 AM -23.0282 -46.2789 179° South 367 422 18,100 -3,153 Descending FlightAware ADS-B
Mon 07:55:50 AM -23.0829 -46.2781 179° South 361 415 16,400 -3,148 Descending FlightAware ADS-B
Mon 07:56:20 AM -23.1325 -46.2773 179° South 354 407 14,900 -3,000 Descending FlightAware ADS-B
Mon 07:56:50 AM -23.1804 -46.2766 179° South 336 387 13,400 -3,344 Descending FlightAware ADS-B
Mon 07:57:21 AM -23.2283 -46.2762 183° South 340 391 11,500 -3,659 Descending FlightAware ADS-B
Mon 07:57:31 AM -23.2440 -46.2793 197° South 346 398 10,900 -3,000 Descending FlightAware ADS-B
Mon 07:57:41 AM -23.2587 -46.2864 210° Southwest 349 402 10,500 -1,895 Descending FlightAware ADS-B
Mon 07:57:50 AM -23.2714 -46.2967 223° Southwest 346 398 10,300 -566 Descending FlightAware ADS-B
Mon 07:58:34 AM -23.2998 -46.3601 229° Southwest 344 396 10,000 -250 Descending FlightAware ADS-B (SDAM)
Mon 07:59:02 AM -23.2797 -46.3070 253° West 282 325 10,000  Level FlightAware ADS-B
Mon 07:59:04 AM -23.3120 -46.4027 229° Southwest 344 396 10,000  Level FlightAware ADS-B (SDAM)
Mon 07:59:15 AM -23.3165 -46.4186 227° Southwest 344 396 10,000  Level FlightAware ADS-B
Mon 07:59:26 AM -23.3203 -46.4319 227° Southwest 344 396 10,000  Level FlightAware ADS-B
Mon 07:59:44 AM -23.3266 -46.4537 229° Southwest 344 396 10,000 -240 Level FlightAware ADS-B (SDAM)
Mon 07:59:51 AM -23.3290 -46.4618 227° Southwest 344 396 9,900 -1,000 Descending FlightAware ADS-B
Mon 07:59:56 AM -23.3308 -46.4677 227° Southwest 344 396 9,800 -1,333 Descending FlightAware ADS-B
Mon 08:00:00 AM -23.3325 -46.4734 227° Southwest 344 396 9,700 -857 Descending FlightAware ADS-B
Mon 08:00:03 AM -23.3335 -46.4769 253° West 242 278 9,700 -947 Level FlightAware ADS-B (SDAM)
Mon 08:00:19 AM -23.3386 -46.4941 253° West 239 275 9,400 -1,200 Descending FlightAware ADS-B (SDAM)
Mon 08:00:33 AM -23.3437 -46.5111 252° West 235 270 9,100 -1,034 Descending FlightAware ADS-B (SDAM)
Mon 08:00:48 AM -23.3486 -46.5275 253° West 224 258 8,900 -800 Descending FlightAware ADS-B (SDAM)
Mon 08:01:03 AM -23.3533 -46.5434 253° West 211 243 8,700 -900 Descending FlightAware ADS-B (SDAM)
Mon 08:01:08 AM -23.3548 -46.5482 252° West 206 237 8,600 -750 Descending FlightAware ADS-B
Mon 08:01:19 AM -23.3578 -46.5582 253° West 203 234 8,500 -1,154 Descending FlightAware ADS-B (SDAM)
Mon 08:01:34 AM -23.3621 -46.5728 253° West 203 234 8,100 -1,200 Descending FlightAware ADS-B (SDAM)
Mon 08:01:49 AM -23.3664 -46.5872 252° West 202 232 7,900 -1,034 Descending FlightAware ADS-B (SDAM)
Mon 08:02:03 AM -23.3707 -46.6016 253° West 202 232 7,600 -1,400 Descending FlightAware ADS-B (SDAM)
Mon 08:02:19 AM -23.3750 -46.6162 253° West 203 234 7,200 -1,200 Descending FlightAware ADS-B (SDAM)
Mon 08:02:33 AM -23.3792 -46.6306 253° West 201 231 7,000 -600 Descending FlightAware ADS-B (SDAM)
Mon 08:02:49 AM -23.3836 -46.6454 253° West 195 224 6,900 -387 Descending FlightAware ADS-B (SDAM)
Mon 08:03:04 AM -23.3875 -46.6588 253° West 182 209 6,800 -207 Descending FlightAware ADS-B (SDAM)
Mon 08:03:18 AM -23.3914 -46.6717 250° West 192 221 6,800 -300 Level FlightAware ADS-B (SDAM)
Mon 08:03:24 AM -23.3938 -46.6768 240° Southwest 199 229 6,700 -545 Descending FlightAware ADS-B (SDAM)
Mon 08:03:29 AM -23.3962 -46.6800 226° Southwest 205 236 6,700  Level FlightAware ADS-B (SDAM)
Mon 08:03:30 AM -23.3976 -46.6814 232° Southwest 204 235 6,700 -1,200 Level FlightAware ADS-B
Mon 08:03:34 AM -23.4003 -46.6835 213° Southwest 208 239 6,600 -750 Descending FlightAware ADS-B (SDAM)
Mon 08:03:38 AM -23.4049 -46.6857 200° South 210 242 6,600  Level FlightAware ADS-B (SDAM)
Mon 08:03:44 AM -23.4089 -46.6867 188° South 210 242 6,600 -545 Level FlightAware ADS-B (SDAM)
Mon 08:03:49 AM -23.4147 -46.6869 178° South 209 241 6,500 -1,333 Descending FlightAware ADS-B (SDAM)
Mon 08:03:53 AM -23.4192 -46.6864 171° South 207 238 6,400 -1,333 Descending FlightAware ADS-B (SDAM)
Mon 08:03:58 AM -23.4236 -46.6851 163° South 208 239 6,300 -900 Descending FlightAware ADS-B (SDAM)
Mon 08:04:13 AM -23.4370 -46.6792 157° South 205 236 6,100 -1,043 Descending FlightAware ADS-B (SDAM)
Mon 08:04:21 AM -23.4438 -46.6762 159° South 206 237 5,900 -1,500 Descending FlightAware ADS-B
Mon 08:04:29 AM -23.4506 -46.6735 160° South 205 236 5,700 -1,667 Descending FlightAware ADS-B (SDAM)
Mon 08:04:39 AM -23.4601 -46.6701 162° South 207 238 5,400 -1,286 Descending FlightAware ADS-B
Mon 08:04:43 AM -23.4620 -46.6694 159° South 206 237 5,400 -1,091 Level FlightAware ADS-B (SDAM)
Mon 08:04:50 AM -23.4700 -46.6652 145° Southeast 206 237 5,200 -923 Descending FlightAware ADS-B
Mon 08:04:56 AM -23.4736 -46.6616 132° Southeast 203 234 5,200  Level FlightAware ADS-B
Mon 08:04:58 AM -23.4751 -46.6594 126° Southeast 205 236 5,200 -1,000 Level FlightAware ADS-B (SDAM)
Mon 08:05:02 AM -23.4742 -46.6607 121° Southeast 204 235 5,100 -1,000 Descending FlightAware ADS-B
Mon 08:05:04 AM -23.4767 -46.6568 117° Southeast 202 232 5,100 -1,000 Level FlightAware ADS-B (SDAM)
Mon 08:05:08 AM -23.4792 -46.6500 105° East 197 227 5,000 -667 Descending FlightAware ADS-B (SDAM)
Mon 08:05:13 AM -23.4797 -46.6471 98° East 195 224 5,000  Level FlightAware ADS-B
Mon 08:05:14 AM -23.4798 -46.6451 93° East 192 221 5,000 -857 Level FlightAware ADS-B (SDAM)
Mon 08:05:20 AM -23.4794 -46.6386 81° East 183 211 4,900 -857 Descending FlightAware ADS-B
Mon 08:05:21 AM -23.4793 -46.6381 82° East 184 212 4,900  Level FlightAware ADS-B
Mon 08:05:24 AM -23.4790 -46.6360 78° East 180 207 4,900 -818 Level FlightAware ADS-B (SDAM)
Mon 08:05:43 AM -23.4747 -46.6197 73° East 174 200 4,600 -1,043 Descending FlightAware ADS-B
Mon 08:05:47 AM -23.4746 -46.6193 72° East 173 199 4,500 -857 Descending FlightAware ADS-B (SDAM)
Mon 08:06:04 AM -23.4700 -46.6024 73° East 167 192 4,300 -667 Descending FlightAware ADS-B
Mon 08:06:05 AM -23.4696 -46.6012 73° East 166 191 4,300 -1,125 Level FlightAware ADS-B
Mon 08:06:20 AM -23.4664 -46.5893 73° East 156 180 4,000 -1,059 Descending FlightAware ADS-B
Mon 08:06:22 AM -23.4665 -46.5898 73° East 154 177 4,000 -750 Level FlightAware ADS-B
Mon 08:06:36 AM -23.4635 -46.5785 73° East 148 170 3,800 -857 Descending FlightAware ADS-B
Mon 08:06:43 AM -23.4627 -46.5756 73° East 147 169 3,700 -857 Descending FlightAware ADS-B
Mon 08:06:50 AM -23.4606 -46.5677 73° East 145 167 3,600 -600 Descending FlightAware ADS-B
Mon 08:07:03 AM -23.4582 -46.5592 74° East 143 165 3,500 -800 Descending FlightAware ADS-B
Mon 08:07:05 AM -23.4578 -46.5576 74° East 143 165 3,400 -1,059 Descending FlightAware ADS-B
Mon 08:07:20 AM -23.4550 -46.5471 73° East 139 160 3,200 -667 Descending FlightAware ADS-B
Mon 08:07:23 AM -23.4545 -46.5453 74° East 140 161 3,200 -400 Level FlightAware ADS-B
Mon 08:07:35 AM -23.4523 -46.5370 73° East 141 162 3,100 -692 Descending FlightAware ADS-B
Mon 08:07:49 AM -23.4499 -46.5279 73° East 143 165 2,900 -774 Descending FlightAware ADS-B
Mon 08:08:06 AM -23.4468 -46.5167 73° East 139 160 2,700 -774 Descending FlightAware ADS-B
Mon 08:08:20 AM -23.4442 -46.5069 74° East 138 159 2,500 -857 Descending FlightAware ADS-B
Mon 08:10:00 AM -23.4321 -46.4695 137° Southeast  Level Estimated

Login

Don't have an account? Register now (free) for customized features, flight alerts, and more!